createdAt,value
2018-11-14T00:00:28.592Z,102387.52
2018-11-14T00:02:57.771Z,102385.81
2018-11-14T00:05:26.214Z,102377.27
2018-11-14T00:07:54.731Z,102389.92
2018-11-14T00:10:23.139Z,102390.33
2018-11-14T00:12:51.569Z,102397.31
2018-11-14T00:15:22.285Z,102395.47
2018-11-14T00:17:51.386Z,102405.78
2018-11-14T00:20:19.840Z,102409.69
2018-11-14T00:22:49.314Z,102419.09
2018-11-14T00:25:17.857Z,102416.21
2018-11-14T00:27:46.338Z,102418.36
2018-11-14T00:30:19.314Z,102423.95
2018-11-14T00:32:47.400Z,102423.04
2018-11-14T00:35:15.901Z,102427.05
2018-11-14T00:37:44.924Z,102427.33
2018-11-14T00:40:14.572Z,102431.34
2018-11-14T00:42:43.655Z,102431.17
2018-11-14T00:45:14.133Z,102439.92
2018-11-14T00:47:43.634Z,102443.55
2018-11-14T00:50:13.389Z,102444.61
2018-11-14T00:52:42.272Z,102444.18
2018-11-14T00:55:13.585Z,102438.91
2018-11-14T00:57:43.054Z,102444.61
2018-11-14T01:00:14.349Z,102450.37
2018-11-14T01:02:43.239Z,102446.22
2018-11-14T01:05:12.762Z,102442.64
2018-11-14T01:07:41.184Z,102443.00
2018-11-14T01:10:11.715Z,102445.36
2018-11-14T01:12:40.508Z,102451.88
2018-11-14T01:15:11.189Z,102451.57
2018-11-14T01:17:39.849Z,102455.22
2018-11-14T01:20:10.317Z,102466.70
2018-11-14T01:22:38.725Z,102461.34
2018-11-14T01:25:07.959Z,102470.45
2018-11-14T01:27:36.359Z,102472.32
2018-11-14T01:30:06.761Z,102470.77
2018-11-14T01:32:35.160Z,102479.36
2018-11-14T01:35:03.597Z,102476.06
2018-11-14T01:37:32.021Z,102476.09
2018-11-14T01:40:00.452Z,102478.31
2018-11-14T01:42:28.884Z,102478.45
2018-11-14T01:45:06.053Z,102476.28
2018-11-14T01:47:34.752Z,102482.62
2018-11-14T01:50:03.564Z,102485.07
2018-11-14T01:52:32.010Z,102480.91
2018-11-14T01:55:00.451Z,102481.12
2018-11-14T01:57:28.877Z,102489.05
2018-11-14T01:59:58.417Z,102493.80
2018-11-14T02:02:26.880Z,102493.63
2018-11-14T02:04:55.353Z,102490.32
2018-11-14T02:07:23.773Z,102497.37
2018-11-14T02:09:52.400Z,102495.92
2018-11-14T02:12:20.872Z,102497.27
2018-11-14T02:14:49.333Z,102498.89
2018-11-14T02:17:17.732Z,102510.10
2018-11-14T02:19:46.189Z,102511.19
2018-11-14T02:22:14.622Z,102508.88
2018-11-14T02:24:43.050Z,102509.23
2018-11-14T02:27:11.509Z,102507.17
2018-11-14T02:29:39.958Z,102509.53
2018-11-14T02:32:08.377Z,102517.67
2018-11-14T02:34:36.841Z,102505.72
2018-11-14T02:37:05.329Z,102503.03
2018-11-14T02:39:33.759Z,102493.97
2018-11-14T02:42:02.514Z,102489.05
2018-11-14T02:44:31.000Z,102487.59
2018-11-14T02:46:59.449Z,102494.61
2018-11-14T02:49:27.877Z,102493.27
2018-11-14T02:51:56.291Z,102490.36
2018-11-14T02:54:24.708Z,102480.48
2018-11-14T02:56:53.166Z,102491.11
2018-11-14T02:59:21.610Z,102485.30
2018-11-14T03:01:50.061Z,102489.52
2018-11-14T03:04:18.498Z,102485.61
2018-11-14T03:06:46.954Z,102489.93
2018-11-14T03:09:15.377Z,102492.05
2018-11-14T03:11:43.813Z,102493.90
2018-11-14T03:14:12.222Z,102495.49
2018-11-14T03:16:40.669Z,102480.36
2018-11-14T03:19:09.096Z,102494.66
2018-11-14T03:21:37.557Z,102493.20
2018-11-14T03:24:06.207Z,102499.67
2018-11-14T03:26:34.661Z,102495.39
2018-11-14T03:29:03.062Z,102497.61
2018-11-14T03:31:31.484Z,102508.15
2018-11-14T03:33:59.881Z,102519.91
2018-11-14T03:36:28.325Z,102513.31
2018-11-14T03:38:56.737Z,102510.84
2018-11-14T03:41:25.187Z,102518.98
2018-11-14T03:43:53.621Z,102523.91
2018-11-14T03:46:22.062Z,102514.69
2018-11-14T03:48:50.477Z,102522.28
2018-11-14T03:51:18.920Z,102524.16
2018-11-14T03:53:47.369Z,102523.19
2018-11-14T03:56:15.808Z,102531.80
2018-11-14T03:58:44.217Z,102530.33
2018-11-14T04:01:12.667Z,102536.36
2018-11-14T04:03:41.099Z,102531.79
2018-11-14T04:06:09.557Z,102529.59
2018-11-14T04:08:37.982Z,102526.26
2018-11-14T04:11:06.753Z,102526.00
2018-11-14T04:13:35.170Z,102519.50
2018-11-14T04:16:03.621Z,102522.44
2018-11-14T04:18:32.044Z,102514.34
2018-11-14T04:21:00.484Z,102507.30
2018-11-14T04:23:28.900Z,102516.55
2018-11-14T04:25:57.329Z,102517.99
2018-11-14T04:28:25.741Z,102517.40
2018-11-14T04:30:54.176Z,102517.03
2018-11-14T04:33:23.014Z,102517.16
2018-11-14T04:35:51.414Z,102522.19
2018-11-14T04:38:19.857Z,102528.82
2018-11-14T04:40:48.273Z,102527.80
2018-11-14T04:43:16.757Z,102535.66
2018-11-14T04:45:45.172Z,102535.37
2018-11-14T04:48:13.662Z,102533.66
2018-11-14T04:50:42.110Z,102537.72
2018-11-14T04:53:10.566Z,102544.94
2018-11-14T04:55:38.987Z,102560.52
2018-11-14T04:58:07.460Z,102555.08
2018-11-14T05:00:35.874Z,102555.80
2018-11-14T05:03:04.366Z,102550.16
2018-11-14T05:05:32.813Z,102547.09
2018-11-14T05:08:01.296Z,102546.56
2018-11-14T05:10:29.708Z,102543.14
2018-11-14T05:12:58.250Z,102540.22
2018-11-14T05:15:26.875Z,102545.33
2018-11-14T05:17:55.728Z,102545.62
2018-11-14T05:20:24.212Z,102560.16
2018-11-14T05:22:52.922Z,102563.44
2018-11-14T05:25:21.393Z,102564.56
2018-11-14T05:27:49.834Z,102553.49
2018-11-14T05:30:19.724Z,102556.23
2018-11-14T05:32:49.071Z,102566.95
2018-11-14T05:35:17.745Z,102559.61
2018-11-14T05:37:46.577Z,102576.36
2018-11-14T05:40:17.371Z,102574.20
2018-11-14T05:42:46.532Z,102567.08
2018-11-14T05:45:19.998Z,102574.27
2018-11-14T05:47:48.473Z,102578.09
2018-11-14T05:50:18.153Z,102586.95
2018-11-14T05:52:46.599Z,102593.61
2018-11-14T05:55:15.459Z,102591.42
2018-11-14T05:57:43.885Z,102598.08
2018-11-14T06:00:19.681Z,102602.02
2018-11-14T06:02:48.143Z,102605.22
2018-11-14T06:05:16.598Z,102596.37
2018-11-14T06:07:45.067Z,102601.91
2018-11-14T06:10:13.851Z,102593.91
2018-11-14T06:12:42.879Z,102594.89
2018-11-14T06:15:14.806Z,102598.34
2018-11-14T06:17:44.157Z,102598.84
2018-11-14T06:20:16.040Z,102600.92
2018-11-14T06:22:45.469Z,102594.02
2018-11-14T06:25:22.524Z,102604.37
2018-11-14T06:27:52.089Z,102604.34
2018-11-14T06:30:20.969Z,102607.41
2018-11-14T06:32:49.705Z,102620.80
2018-11-14T06:35:18.703Z,102620.23
2018-11-14T06:37:47.511Z,102623.97
2018-11-14T06:40:15.924Z,102618.98
2018-11-14T06:42:44.383Z,102610.55
2018-11-14T06:45:14.125Z,102600.30
2018-11-14T06:47:43.977Z,102614.41
2018-11-14T06:50:13.090Z,102620.32
2018-11-14T06:52:41.996Z,102621.77
2018-11-14T06:55:12.315Z,102627.14
2018-11-14T06:57:40.817Z,102627.23
2018-11-14T07:00:13.693Z,102639.28
2018-11-14T07:02:42.644Z,102640.73
2018-11-14T07:05:12.836Z,102640.47
2018-11-14T07:07:41.498Z,102642.92
2018-11-14T07:10:12.019Z,102646.73
2018-11-14T07:12:40.453Z,102641.54
2018-11-14T07:15:11.438Z,102646.67
2018-11-14T07:17:39.918Z,102638.65
2018-11-14T07:20:11.553Z,102640.09
2018-11-14T07:22:39.980Z,102641.54
2018-11-14T07:25:08.878Z,102644.70
2018-11-14T07:27:37.305Z,102637.88
2018-11-14T07:30:08.329Z,102645.60
2018-11-14T07:32:36.756Z,102643.32
2018-11-14T07:35:05.742Z,102649.58
2018-11-14T07:37:34.178Z,102642.01
2018-11-14T07:40:02.622Z,102641.59
2018-11-14T07:42:31.028Z,102647.61
2018-11-14T07:44:59.479Z,102646.63
2018-11-14T07:47:27.905Z,102653.78
2018-11-14T07:49:56.418Z,102656.58
2018-11-14T07:52:24.807Z,102648.50
2018-11-14T07:54:53.244Z,102657.25
2018-11-14T07:57:21.664Z,102666.72
2018-11-14T07:59:50.101Z,102666.06
2018-11-14T08:02:18.560Z,102664.20
2018-11-14T08:04:47.000Z,102673.09
2018-11-14T08:07:15.412Z,102673.80
2018-11-14T08:09:43.862Z,102679.38
2018-11-14T08:12:12.312Z,102679.23
2018-11-14T08:14:40.770Z,102682.41
2018-11-14T08:17:09.192Z,102684.63
2018-11-14T08:19:37.650Z,102682.22
2018-11-14T08:22:06.093Z,102685.29
2018-11-14T08:24:34.507Z,102684.16
2018-11-14T08:27:02.952Z,102685.44
2018-11-14T08:29:31.454Z,102685.89
2018-11-14T08:31:59.898Z,102685.62
2018-11-14T08:34:28.318Z,102686.48
2018-11-14T08:36:56.756Z,102681.45
2018-11-14T08:39:25.314Z,102686.47
2018-11-14T08:41:53.695Z,102683.42
2018-11-14T08:44:22.102Z,102678.90
2018-11-14T08:46:50.559Z,102683.78
2018-11-14T08:49:19.024Z,102684.70
2018-11-14T08:51:47.485Z,102688.28
2018-11-14T08:54:15.907Z,102690.22
2018-11-14T08:56:44.382Z,102695.52
2018-11-14T08:59:12.810Z,102695.72
2018-11-14T09:01:41.297Z,102691.36
2018-11-14T09:04:09.766Z,102692.28
2018-11-14T09:06:38.226Z,102692.42
2018-11-14T09:09:09.283Z,102696.59
2018-11-14T09:11:37.730Z,102697.36
2018-11-14T09:14:06.467Z,102699.77
2018-11-14T09:16:34.912Z,102700.34
2018-11-14T09:19:03.343Z,102718.96
2018-11-14T09:21:31.788Z,102720.03
2018-11-14T09:24:00.225Z,102729.86
2018-11-14T09:26:28.665Z,102729.41
2018-11-14T09:28:57.092Z,102738.03
2018-11-14T09:31:25.537Z,102736.95
2018-11-14T09:33:53.973Z,102741.61
2018-11-14T09:36:22.386Z,102740.65
2018-11-14T09:38:50.857Z,102738.48
2018-11-14T09:41:19.292Z,102736.97
2018-11-14T09:43:47.754Z,102736.33
2018-11-14T09:46:16.193Z,102733.72
2018-11-14T09:48:44.651Z,102725.30
2018-11-14T09:51:13.077Z,102731.27
2018-11-14T09:53:41.524Z,102730.78
2018-11-14T09:56:09.960Z,102730.16
2018-11-14T09:58:38.438Z,102730.33
2018-11-14T10:01:07.005Z,102726.13
2018-11-14T10:03:35.476Z,102728.25
2018-11-14T10:06:03.979Z,102730.09
2018-11-14T10:08:32.398Z,102732.17
2018-11-14T10:11:00.907Z,102739.50
2018-11-14T10:13:29.302Z,102737.12
2018-11-14T10:15:57.711Z,102737.90
2018-11-14T10:18:26.264Z,102734.42
2018-11-14T10:20:54.674Z,102721.23
2018-11-14T10:23:23.137Z,102729.06
2018-11-14T10:25:51.547Z,102725.03
2018-11-14T10:28:20.007Z,102723.66
2018-11-14T10:30:48.555Z,102724.22
2018-11-14T10:33:17.841Z,102725.70
2018-11-14T10:35:46.291Z,102732.38
2018-11-14T10:38:14.748Z,102732.20
2018-11-14T10:40:43.207Z,102728.00
2018-11-14T10:43:11.642Z,102732.09
2018-11-14T10:45:40.131Z,102736.91
2018-11-14T10:48:08.582Z,102740.70
2018-11-14T10:50:37.012Z,102741.19
2018-11-14T10:53:05.757Z,102741.02
2018-11-14T10:55:34.174Z,102743.80
2018-11-14T10:58:02.648Z,102737.03
2018-11-14T11:00:36.492Z,102737.46
2018-11-14T11:03:10.194Z,102723.41
2018-11-14T11:05:43.772Z,102729.30
2018-11-14T11:08:18.455Z,102724.19
2018-11-14T11:10:52.110Z,102715.02
2018-11-14T11:13:25.977Z,102717.37
2018-11-14T11:15:59.639Z,102715.33
2018-11-14T11:18:29.824Z,102717.92
2018-11-14T11:20:58.301Z,102706.45
2018-11-14T11:23:26.776Z,102700.48
2018-11-14T11:25:55.221Z,102707.30
2018-11-14T11:28:23.685Z,102699.93
2018-11-14T11:30:52.250Z,102701.80
2018-11-14T11:33:20.625Z,102703.30
2018-11-14T11:35:49.093Z,102703.00
2018-11-14T11:38:17.591Z,102710.59
2018-11-14T11:40:46.066Z,102710.93
2018-11-14T11:43:14.495Z,102707.05
2018-11-14T11:45:42.977Z,102707.39
2018-11-14T11:48:11.497Z,102704.45
2018-11-14T11:50:39.946Z,102703.21
2018-11-14T11:53:08.368Z,102704.58
2018-11-14T11:55:36.805Z,102700.44
2018-11-14T11:58:05.692Z,102708.72
2018-11-14T12:00:34.274Z,102705.77
2018-11-14T12:03:02.636Z,102711.56
2018-11-14T12:05:31.090Z,102707.90
2018-11-14T12:07:59.512Z,102705.69
2018-11-14T12:10:27.988Z,102707.81
2018-11-14T12:12:56.443Z,102708.16
2018-11-14T12:15:24.885Z,102699.28
2018-11-14T12:17:53.418Z,102702.61
2018-11-14T12:20:21.796Z,102707.30
2018-11-14T12:22:50.230Z,102701.42
2018-11-14T12:25:18.682Z,102697.84
2018-11-14T12:27:47.106Z,102698.18
2018-11-14T12:30:17.123Z,102688.67
2018-11-14T12:32:45.504Z,102679.83
2018-11-14T12:35:15.332Z,102687.68
2018-11-14T12:37:43.728Z,102685.94
2018-11-14T12:40:13.201Z,102683.72
2018-11-14T12:42:41.848Z,102678.30
2018-11-14T12:45:12.375Z,102679.22
2018-11-14T12:47:40.872Z,102680.97
2018-11-14T12:50:10.231Z,102679.44
2018-11-14T12:52:38.854Z,102678.55
2018-11-14T12:55:09.270Z,102676.36
2018-11-14T12:57:37.712Z,102676.40
2018-11-14T13:00:07.799Z,102671.35
2018-11-14T13:02:36.246Z,102671.55
2018-11-14T13:05:04.899Z,102668.20
2018-11-14T13:07:33.364Z,102673.73
2018-11-14T13:10:01.789Z,102669.61
2018-11-14T13:12:30.236Z,102670.97
2018-11-14T13:14:58.675Z,102672.51
2018-11-14T13:17:27.129Z,102674.73
2018-11-14T13:19:55.572Z,102673.36
2018-11-14T13:22:24.030Z,102669.80
2018-11-14T13:24:52.447Z,102673.19
2018-11-14T13:27:20.911Z,102671.89
2018-11-14T13:29:49.346Z,102673.42
2018-11-14T13:32:17.833Z,102671.92
2018-11-14T13:34:46.254Z,102666.59
2018-11-14T13:37:14.728Z,102663.61
2018-11-14T13:39:43.263Z,102674.60
2018-11-14T13:42:11.712Z,102670.91
2018-11-14T13:44:40.171Z,102681.12
2018-11-14T13:47:08.620Z,102679.07
2018-11-14T13:49:37.172Z,102682.40
2018-11-14T13:52:05.889Z,102675.98
2018-11-14T13:54:34.314Z,102673.33
2018-11-14T13:57:02.816Z,102673.27
2018-11-14T13:59:31.245Z,102676.81
2018-11-14T14:01:59.714Z,102676.27
2018-11-14T14:04:28.185Z,102684.25
2018-11-14T14:06:56.657Z,102693.64
2018-11-14T14:09:25.163Z,102697.73
2018-11-14T14:11:53.536Z,102699.81
2018-11-14T14:14:22.013Z,102705.11
2018-11-14T14:16:50.457Z,102696.57
2018-11-14T14:19:18.927Z,102692.64
2018-11-14T14:21:47.363Z,102693.16
2018-11-14T14:24:15.849Z,102690.22
2018-11-14T14:26:44.276Z,102683.70
2018-11-14T14:29:12.739Z,102680.59
2018-11-14T14:31:41.193Z,102678.16
2018-11-14T14:34:09.641Z,102679.62
2018-11-14T14:36:38.093Z,102686.92
2018-11-14T14:39:08.876Z,102688.08
2018-11-14T14:41:37.355Z,102687.69
2018-11-14T14:44:06.105Z,102692.43
2018-11-14T14:46:34.532Z,102685.39
2018-11-14T14:49:03.098Z,102685.48
2018-11-14T14:51:31.593Z,102695.11
2018-11-14T14:54:00.046Z,102695.37
2018-11-14T14:56:28.506Z,102688.66
2018-11-14T14:59:03.690Z,102686.53
2018-11-14T15:01:32.144Z,102684.27
2018-11-14T15:04:00.638Z,102693.55
2018-11-14T15:06:29.066Z,102700.42
2018-11-14T15:08:57.577Z,102698.57
2018-11-14T15:11:26.016Z,102690.80
2018-11-14T15:13:54.480Z,102691.45
2018-11-14T15:16:22.925Z,102696.66
2018-11-14T15:18:51.348Z,102685.98
2018-11-14T15:21:19.804Z,102684.18
2018-11-14T15:23:48.520Z,102670.66
2018-11-14T15:26:16.993Z,102679.97
2018-11-14T15:28:45.428Z,102682.38
2018-11-14T15:31:13.890Z,102677.89
2018-11-14T15:33:42.322Z,102678.39
2018-11-14T15:36:10.831Z,102675.45
2018-11-14T15:38:39.266Z,102673.67
2018-11-14T15:41:07.743Z,102678.73
2018-11-14T15:43:36.202Z,102680.26
2018-11-14T15:46:04.693Z,102675.61
2018-11-14T15:48:33.108Z,102664.93
2018-11-14T15:51:01.580Z,102663.85
2018-11-14T15:53:29.990Z,102662.48
2018-11-14T15:55:58.456Z,102663.85
2018-11-14T15:58:26.874Z,102666.45
2018-11-14T16:00:55.337Z,102667.14
2018-11-14T16:03:23.774Z,102672.09
2018-11-14T16:05:52.241Z,102670.95
2018-11-14T16:08:20.652Z,102670.79
2018-11-14T16:10:49.109Z,102674.02
2018-11-14T16:13:17.530Z,102682.56
2018-11-14T16:15:45.990Z,102674.40
2018-11-14T16:18:14.436Z,102670.16
2018-11-14T16:20:42.885Z,102671.30
2018-11-14T16:23:11.307Z,102668.23
2018-11-14T16:25:39.760Z,102667.14
2018-11-14T16:28:08.227Z,102658.98
2018-11-14T16:30:37.534Z,102655.05
2018-11-14T16:33:07.270Z,102656.82
2018-11-14T16:35:35.776Z,102657.77
2018-11-14T16:38:04.292Z,102647.83
2018-11-14T16:40:33.902Z,102641.43
2018-11-14T16:43:03.844Z,102651.97
2018-11-14T16:45:32.290Z,102646.80
2018-11-14T16:48:00.729Z,102644.23
2018-11-14T16:50:29.184Z,102645.72
2018-11-14T16:52:57.626Z,102639.23
2018-11-14T16:55:26.084Z,102646.51
2018-11-14T16:57:55.559Z,102652.84
2018-11-14T17:00:27.243Z,102657.39
2018-11-14T17:02:55.749Z,102649.89
2018-11-14T17:05:25.176Z,102656.03
2018-11-14T17:07:53.855Z,102661.13
2018-11-14T17:10:22.889Z,102657.27
2018-11-14T17:12:52.681Z,102663.41
2018-11-14T17:15:22.443Z,102662.71
2018-11-14T17:17:50.896Z,102667.80
2018-11-14T17:20:20.168Z,102660.78
2018-11-14T17:22:49.255Z,102659.84
2018-11-14T17:25:18.298Z,102656.97
2018-11-14T17:27:47.180Z,102657.41
2018-11-14T17:30:18.206Z,102665.41
2018-11-14T17:32:46.704Z,102666.08
2018-11-14T17:35:15.874Z,102660.20
2018-11-14T17:37:44.784Z,102667.16
2018-11-14T17:40:16.492Z,102670.73
2018-11-14T17:42:45.763Z,102667.16
2018-11-14T17:45:15.879Z,102670.73
2018-11-14T17:47:44.425Z,102666.27
2018-11-14T17:50:16.472Z,102666.58
2018-11-14T17:52:45.304Z,102666.63
2018-11-14T17:55:14.703Z,102665.89
2018-11-14T17:57:43.191Z,102670.63
2018-11-14T18:00:13.372Z,102664.61
2018-11-14T18:02:42.698Z,102668.97
2018-11-14T18:05:15.672Z,102661.59
2018-11-14T18:07:44.878Z,102668.39
2018-11-14T18:10:14.588Z,102662.37
2018-11-14T18:12:43.629Z,102670.52
2018-11-14T18:15:12.630Z,102679.69
2018-11-14T18:17:41.663Z,102671.81
2018-11-14T18:20:27.593Z,102674.53
2018-11-14T18:22:56.362Z,102673.17
2018-11-14T18:25:24.799Z,102666.38
2018-11-14T18:27:53.254Z,102665.23
2018-11-14T18:30:25.752Z,102661.44
2018-11-14T18:32:55.172Z,102665.52
2018-11-14T18:35:24.152Z,102674.25
2018-11-14T18:37:53.392Z,102672.74
2018-11-14T18:40:23.128Z,102674.68
2018-11-14T18:42:51.578Z,102675.42
2018-11-14T18:45:22.517Z,102671.84
2018-11-14T18:47:51.026Z,102681.20
2018-11-14T18:50:20.274Z,102678.84
2018-11-14T18:52:49.213Z,102677.86
2018-11-14T18:55:18.705Z,102675.61
2018-11-14T18:57:47.520Z,102679.84
2018-11-14T19:00:18.991Z,102670.09
2018-11-14T19:02:47.456Z,102678.84
2018-11-14T19:05:16.507Z,102678.84
2018-11-14T19:07:45.013Z,102672.27
2018-11-14T19:10:14.878Z,102669.78
2018-11-14T19:12:43.880Z,102671.14
2018-11-14T19:15:15.705Z,102674.36
2018-11-14T19:17:44.139Z,102670.05
2018-11-14T19:20:17.212Z,102667.84
2018-11-14T19:22:46.055Z,102668.62
2018-11-14T19:25:16.776Z,102664.54
2018-11-14T19:27:45.913Z,102654.79
2018-11-14T19:30:18.690Z,102660.38
2018-11-14T19:32:48.226Z,102657.86
2018-11-14T19:35:16.919Z,102657.16
2018-11-14T19:37:46.581Z,102663.80
2018-11-14T19:40:19.329Z,102661.31
2018-11-14T19:42:48.692Z,102667.61
2018-11-14T19:45:18.973Z,102673.78
2018-11-14T19:47:47.397Z,102669.20
2018-11-14T19:50:16.952Z,102669.70
2018-11-14T19:52:45.828Z,102678.48
2018-11-14T19:55:15.618Z,102673.20
2018-11-14T19:57:44.976Z,102673.48
2018-11-14T20:00:16.823Z,102670.87
2018-11-14T20:02:45.242Z,102678.84
2018-11-14T20:05:14.808Z,102679.97
2018-11-14T20:07:43.223Z,102677.17
2018-11-14T20:10:18.885Z,102681.09
2018-11-14T20:12:47.842Z,102678.56
2018-11-14T20:15:17.698Z,102682.83
2018-11-14T20:17:46.817Z,102677.58
2018-11-14T20:20:16.783Z,102676.92
2018-11-14T20:22:45.636Z,102677.42
2018-11-14T20:25:14.133Z,102688.21
2018-11-14T20:27:42.839Z,102684.97
2018-11-14T20:30:12.843Z,102684.59
2018-11-14T20:32:41.351Z,102687.73
2018-11-14T20:35:11.128Z,102691.98
2018-11-14T20:37:39.916Z,102687.31
2018-11-14T20:40:09.876Z,102683.80
2018-11-14T20:42:38.701Z,102686.09
2018-11-14T20:45:09.323Z,102697.34
2018-11-14T20:47:37.749Z,102692.17
2018-11-14T20:50:08.850Z,102689.72
2018-11-14T20:52:37.340Z,102692.55
2018-11-14T20:55:07.735Z,102691.35
2018-11-14T20:57:36.533Z,102686.42
2018-11-14T21:00:06.106Z,102691.50
2018-11-14T21:02:34.527Z,102687.83
2018-11-14T21:05:03.032Z,102689.53
2018-11-14T21:07:31.470Z,102693.36
2018-11-14T21:09:59.910Z,102693.80
2018-11-14T21:12:28.391Z,102703.16
2018-11-14T21:14:56.791Z,102706.98
2018-11-14T21:17:25.227Z,102703.92
2018-11-14T21:19:53.664Z,102700.32
2018-11-14T21:22:22.092Z,102701.31
2018-11-14T21:24:50.530Z,102699.21
2018-11-14T21:27:18.971Z,102696.08
2018-11-14T21:29:47.437Z,102688.20
2018-11-14T21:32:15.847Z,102704.96
2018-11-14T21:34:44.244Z,102703.00
2018-11-14T21:37:12.688Z,102701.89
2018-11-14T21:39:41.117Z,102701.04
2018-11-14T21:42:09.557Z,102693.87
2018-11-14T21:44:37.979Z,102698.22
2018-11-14T21:47:06.426Z,102707.70
2018-11-14T21:49:34.840Z,102704.77
2018-11-14T21:52:03.293Z,102702.44
2018-11-14T21:54:31.706Z,102696.19
2018-11-14T21:57:00.150Z,102693.73
2018-11-14T21:59:28.560Z,102690.39
2018-11-14T22:01:56.984Z,102691.39
2018-11-14T22:04:25.417Z,102693.00
2018-11-14T22:06:53.850Z,102698.65
2018-11-14T22:09:22.263Z,102706.53
2018-11-14T22:11:50.718Z,102698.77
2018-11-14T22:14:19.125Z,102700.63
2018-11-14T22:16:47.540Z,102700.39
2018-11-14T22:19:16.004Z,102697.41
2018-11-14T22:21:44.437Z,102697.55
2018-11-14T22:24:12.893Z,102701.11
2018-11-14T22:26:41.310Z,102705.56
2018-11-14T22:29:09.753Z,102702.58
2018-11-14T22:31:38.183Z,102703.32
2018-11-14T22:34:07.057Z,102704.67
2018-11-14T22:36:35.480Z,102702.09
2018-11-14T22:39:04.653Z,102696.77
2018-11-14T22:41:33.060Z,102699.70
2018-11-14T22:44:01.495Z,102698.49
2018-11-14T22:46:29.894Z,102690.00
2018-11-14T22:48:58.352Z,102698.02
2018-11-14T22:51:26.777Z,102704.06
2018-11-14T22:53:55.224Z,102702.23
2018-11-14T22:56:23.649Z,102700.97
2018-11-14T22:58:52.127Z,102708.34
2018-11-14T23:01:20.566Z,102703.53
2018-11-14T23:03:49.033Z,102696.74
2018-11-14T23:06:17.448Z,102696.74
2018-11-14T23:08:45.887Z,102697.86
2018-11-14T23:11:14.295Z,102688.39
2018-11-14T23:13:42.732Z,102693.33
2018-11-14T23:16:11.159Z,102694.18
2018-11-14T23:18:39.593Z,102683.27
2018-11-14T23:21:08.030Z,102685.95
2018-11-14T23:23:36.465Z,102680.05
2018-11-14T23:26:04.892Z,102676.12
2018-11-14T23:28:33.331Z,102676.12
2018-11-14T23:31:01.748Z,102678.69
2018-11-14T23:33:30.220Z,102678.59
2018-11-14T23:35:58.641Z,102671.80
2018-11-14T23:38:27.080Z,102674.89
2018-11-14T23:40:55.522Z,102673.89
2018-11-14T23:43:23.950Z,102676.95
2018-11-14T23:45:52.370Z,102680.42
2018-11-14T23:48:20.805Z,102684.45
2018-11-14T23:50:49.254Z,102686.38
2018-11-14T23:53:17.690Z,102694.87
2018-11-14T23:55:46.149Z,102688.40
2018-11-14T23:58:14.600Z,102677.09
